Laukaa, Finland
Kieli:  Suomi
CurCond
Päivitetty20/06/2021 23:59 
 

Lähistön Lentoasemien Säätiloja:

 

EFJY - Jyvaskyla (mil/C,) Finland
Etäisyys Sääasemalta: PKo 21km
Päivitetty: 20/06/2021 23:50
Selkeätä
Selkeätä
 Tuulen suunta E
Tuuli: E 6 km/h
Lämpötila: 22°C
Kastepiste: 16°C
Ilmankosteus: 69%
Ilmanpaine: 1012 hPa
Yhteenveto: Selkeätä
Näkyvyys: Enemmän Kuin 10 km
2021/06/20 20:50 EFJY 202050Z AUTO 18003KT CAVOK 22/16 Q1012
EFHA - Halli (fin-Afb), Finland
Etäisyys Sääasemalta: Lo 56km
Päivitetty: 20/06/2021 23:50
Selkeätä
Selkeätä
 Tuulen suunta ELo
Tuuli: ELo 13 km/h
Lämpötila: 23°C
Kastepiste: 16°C
Ilmankosteus: 65%
Ilmanpaine: 1012 hPa
Yhteenveto: Selkeätä
Näkyvyys: Enemmän Kuin 10 km
2021/06/20 20:50 EFHA 202050Z AUTO 20007KT CAVOK 23/16 Q1012
EFMI - Mikkeli, Finland
Etäisyys Sääasemalta: IKa 105km
Päivitetty: 20/06/2021 23:50
Selkeätä
Selkeätä
 Tuulen suunta E
Tuuli: E 7 km/h
Lämpötila: 24°C
Kastepiste: 15°C
Ilmankosteus: 57%
Ilmanpaine: 1013 hPa
Yhteenveto: Selkeätä
Näkyvyys: Enemmän Kuin 10 km
2021/06/20 20:50 EFMI 202050Z AUTO 19004KT 160V220 CAVOK 24/15 Q1013
 
EFTP - Tampere/Pirkkala, Finland
Etäisyys Sääasemalta: Lo 135km
Päivitetty: 20/06/2021 23:50
Selkeätä
Selkeätä
 Tuulen suunta E
Tuuli: E 11 km/h
Lämpötila: 23°C
Kastepiste: 16°C
Ilmankosteus: 65%
Ilmanpaine: 1012 hPa
Yhteenveto: Selkeätä
Näkyvyys: Enemmän Kuin 10 km
2021/06/20 20:50 EFTP 202050Z AUTO 18006KT CAVOK 23/16 Q1012
EFKU - Kuopio (mil/Civ), Finland
Etäisyys Sääasemalta: Ko 146km
Päivitetty: 20/06/2021 23:50
Selkeätä
Selkeätä
 Tuulen suunta varies
Tuuli: varies 4 km/h
Lämpötila: 22°C
Kastepiste: 17°C
Ilmankosteus: 73%
Ilmanpaine: 1011 hPa
Yhteenveto: Selkeätä
Näkyvyys: Enemmän Kuin 10 km
2021/06/20 20:50 EFKU 202050Z AUTO VRB02KT CAVOK 22/17 Q1011
EFSI - Seinajoki-Ilmajo, Finland
Etäisyys Sääasemalta: LLu 149km
Päivitetty: 20/06/2021 23:50
Selkeätä
Selkeätä
 Tuulen suunta Ko
Tuuli: Ko 2 km/h
Lämpötila: 16°C
Kastepiste: 14°C
Ilmankosteus: 88%
Ilmanpaine: 1011 hPa
Yhteenveto: Selkeätä
Näkyvyys: Enemmän Kuin 10 km
2021/06/20 20:50 EFSI 202050Z AUTO 04001KT CAVOK 16/14 Q1011